createdAt,value
2022-11-04T00:03:22.707Z,10.77
2022-11-04T00:08:26.280Z,10.86
2022-11-04T00:13:29.696Z,10.84
2022-11-04T00:18:31.869Z,10.84
2022-11-04T00:23:50.222Z,10.75
2022-11-04T00:28:53.001Z,10.78
2022-11-04T00:33:56.900Z,10.70
2022-11-04T00:38:57.879Z,10.65
2022-11-04T00:44:00.498Z,10.73
2022-11-04T00:49:02.665Z,10.70
2022-11-04T00:54:03.465Z,10.73
2022-11-04T00:59:04.601Z,10.70
2022-11-04T01:04:06.822Z,10.68
2022-11-04T01:09:10.000Z,10.61
2022-11-04T01:14:10.957Z,10.53
2022-11-04T01:19:13.431Z,10.54
2022-11-04T01:24:14.246Z,10.54
2022-11-04T01:29:15.129Z,10.64
2022-11-04T01:34:17.300Z,10.68
2022-11-04T01:39:18.102Z,10.63
2022-11-04T01:44:47.696Z,10.69
2022-11-04T01:49:53.576Z,10.70
2022-11-04T01:54:57.309Z,10.72
2022-11-04T02:00:02.398Z,10.79
2022-11-04T02:05:14.260Z,10.90
2022-11-04T02:10:15.220Z,11.02
2022-11-04T02:15:16.210Z,10.97
2022-11-04T02:20:41.748Z,11.07
2022-11-04T02:26:10.402Z,11.08
2022-11-04T02:31:19.082Z,11.16
2022-11-04T02:36:26.338Z,11.10
2022-11-04T02:41:37.298Z,11.04
2022-11-04T02:46:47.169Z,11.10
2022-11-04T02:51:52.626Z,11.20
2022-11-04T02:56:57.239Z,11.12
2022-11-04T03:02:02.315Z,11.21
2022-11-04T03:07:07.255Z,11.44
2022-11-04T03:12:14.961Z,11.30
2022-11-04T03:17:23.510Z,11.31
2022-11-04T03:22:28.153Z,11.36
2022-11-04T03:27:36.264Z,11.39
2022-11-04T03:32:44.872Z,11.33
2022-11-04T03:37:48.528Z,11.05
2022-11-04T03:42:57.045Z,10.85
2022-11-04T03:47:59.498Z,10.87
2022-11-04T03:53:01.434Z,11.01
2022-11-04T03:58:09.570Z,10.93
2022-11-04T04:03:18.982Z,10.93
2022-11-04T04:08:33.020Z,10.90
2022-11-04T04:13:40.024Z,10.91
2022-11-04T04:18:52.620Z,10.93
2022-11-04T04:24:18.906Z,10.98
2022-11-04T04:29:21.182Z,11.06
2022-11-04T04:34:25.381Z,11.12
2022-11-04T04:39:46.574Z,11.07
2022-11-04T04:45:03.347Z,11.13
2022-11-04T04:50:06.856Z,11.12
2022-11-04T04:55:08.771Z,11.10
2022-11-04T05:00:13.364Z,11.15
2022-11-04T05:10:21.559Z,11.15
2022-11-04T05:15:22.394Z,11.41
2022-11-04T05:20:25.694Z,11.62
2022-11-04T05:25:26.581Z,11.84
2022-11-04T05:30:27.549Z,11.55
2022-11-04T05:35:29.758Z,11.40
2022-11-04T05:40:30.566Z,11.10
2022-11-04T05:45:31.543Z,10.97
2022-11-04T05:50:34.916Z,10.92
2022-11-04T05:55:35.718Z,10.78
2022-11-04T06:00:36.533Z,10.68
2022-11-04T06:05:38.800Z,10.76
2022-11-04T06:10:39.578Z,10.74
2022-11-04T06:15:40.367Z,10.64
2022-11-04T06:20:42.490Z,10.59
2022-11-04T06:25:43.335Z,10.64
2022-11-04T06:30:44.241Z,10.60
2022-11-04T06:35:46.374Z,10.63
2022-11-04T06:40:47.194Z,10.66
2022-11-04T06:45:54.391Z,10.73
2022-11-04T06:50:56.565Z,10.87
2022-11-04T06:56:04.022Z,10.94
2022-11-04T07:01:11.120Z,11.00
2022-11-04T07:06:15.819Z,11.11
2022-11-04T07:11:17.128Z,11.29
2022-11-04T07:16:19.066Z,11.30
2022-11-04T07:21:21.238Z,11.39
2022-11-04T07:26:22.683Z,11.48
2022-11-04T07:31:23.524Z,11.60
2022-11-04T07:36:25.705Z,11.72
2022-11-04T07:41:26.513Z,11.93
2022-11-04T07:46:27.625Z,12.26
2022-11-04T07:51:32.280Z,12.51
2022-11-04T07:56:33.112Z,12.63
2022-11-04T08:01:34.483Z,12.50
2022-11-04T08:06:36.682Z,12.37
2022-11-04T08:11:37.543Z,12.10
2022-11-04T08:16:38.392Z,12.04
2022-11-04T08:21:40.568Z,12.03
2022-11-04T08:26:42.244Z,11.88
2022-11-04T08:31:43.409Z,11.89
2022-11-04T08:36:46.561Z,11.76
2022-11-04T08:41:48.125Z,11.97
2022-11-04T08:46:49.810Z,12.05
2022-11-04T08:51:56.799Z,12.15
2022-11-04T08:56:57.795Z,12.23
2022-11-04T09:01:58.689Z,12.18
2022-11-04T09:07:07.849Z,12.08
2022-11-04T09:12:10.964Z,12.00
2022-11-04T09:17:11.887Z,11.88
2022-11-04T09:22:14.105Z,11.79
2022-11-04T09:27:15.191Z,11.74
2022-11-04T09:32:16.132Z,11.68
2022-11-04T09:37:18.333Z,11.60
2022-11-04T09:42:34.483Z,11.50
2022-11-04T09:47:37.634Z,11.55
2022-11-04T09:52:44.511Z,11.39
2022-11-04T09:57:46.054Z,11.28
2022-11-04T10:03:00.962Z,11.16
2022-11-04T10:08:24.787Z,11.12
2022-11-04T10:13:36.609Z,11.02
2022-11-04T10:18:49.778Z,11.03
2022-11-04T10:24:07.754Z,10.91
2022-11-04T10:29:24.764Z,10.88
2022-11-04T10:34:33.586Z,10.83
2022-11-04T10:39:40.929Z,10.75
2022-11-04T10:44:41.795Z,10.59
2022-11-04T10:50:26.384Z,10.55
2022-11-04T10:55:32.013Z,10.48
2022-11-04T11:00:41.478Z,10.43
2022-11-04T11:05:42.382Z,10.43
2022-11-04T11:10:52.814Z,10.43
2022-11-04T11:16:07.083Z,10.38
2022-11-04T11:21:12.085Z,10.39
2022-11-04T11:26:17.426Z,10.33
2022-11-04T11:31:24.386Z,10.33
2022-11-04T11:36:27.880Z,10.32
2022-11-04T11:41:32.378Z,10.36
2022-11-04T11:46:35.690Z,10.29
2022-11-04T11:51:38.853Z,10.22
2022-11-04T11:57:12.123Z,10.15
2022-11-04T12:02:26.708Z,10.07
2022-11-04T12:13:18.472Z,10.09
2022-11-04T12:18:58.822Z,10.13
2022-11-04T12:24:06.839Z,10.09
2022-11-04T12:29:29.782Z,9.91
2022-11-04T12:34:40.617Z,9.76
2022-11-04T12:39:59.294Z,9.75
2022-11-04T12:45:16.916Z,9.78
2022-11-04T12:50:35.557Z,9.85
2022-11-04T12:55:48.026Z,9.79
2022-11-04T13:00:59.971Z,9.82
2022-11-04T13:06:04.837Z,9.69
2022-11-04T13:11:22.760Z,9.73
2022-11-04T13:16:25.282Z,9.68
2022-11-04T13:21:28.527Z,9.67
2022-11-04T13:26:29.317Z,9.70
2022-11-04T13:31:39.667Z,9.61
2022-11-04T13:36:47.591Z,9.62
2022-11-04T13:42:10.695Z,9.65
2022-11-04T13:47:22.142Z,9.60
2022-11-04T13:52:29.329Z,9.62
2022-11-04T13:57:32.273Z,9.63
2022-11-04T14:02:44.860Z,9.58
2022-11-04T14:08:16.849Z,9.45
2022-11-04T14:13:51.299Z,9.46
2022-11-04T14:18:54.832Z,9.48
2022-11-04T14:23:58.021Z,9.72
2022-11-04T14:29:03.630Z,9.81
2022-11-04T14:34:06.947Z,9.78
2022-11-04T14:39:21.990Z,9.65
2022-11-04T14:44:30.849Z,9.57
2022-11-04T14:49:43.503Z,9.58
2022-11-04T14:54:44.631Z,9.63
2022-11-04T14:59:45.845Z,9.54
2022-11-04T15:04:51.620Z,9.53
2022-11-04T15:09:52.422Z,9.43
2022-11-04T15:14:53.442Z,9.32
2022-11-04T15:19:59.569Z,9.19
2022-11-04T15:25:05.988Z,9.02
2022-11-04T15:30:21.551Z,8.85
2022-11-04T15:35:24.216Z,8.81
2022-11-04T15:40:27.604Z,8.76
2022-11-04T15:45:39.115Z,8.84
2022-11-04T15:50:42.972Z,8.81
2022-11-04T15:55:43.984Z,8.84
2022-11-04T16:00:53.658Z,8.91
2022-11-04T16:06:07.753Z,8.94
2022-11-04T16:11:17.488Z,8.98
2022-11-04T16:16:25.556Z,8.95
2022-11-04T16:21:30.865Z,8.90
2022-11-04T16:26:38.253Z,8.90
2022-11-04T16:31:39.044Z,8.94
2022-11-04T16:36:41.510Z,8.93
2022-11-04T16:41:42.705Z,8.91
2022-11-04T16:46:45.410Z,8.94
2022-11-04T16:51:51.211Z,8.94
2022-11-04T16:56:52.098Z,8.96
2022-11-04T17:01:53.112Z,8.94
2022-11-04T17:06:55.553Z,8.87
2022-11-04T17:11:56.385Z,8.93
2022-11-04T17:17:00.138Z,8.90
2022-11-04T17:22:05.248Z,8.90
2022-11-04T17:27:06.499Z,8.89
2022-11-04T17:32:07.545Z,8.88
2022-11-04T17:37:11.990Z,8.89
2022-11-04T17:42:30.440Z,8.83
2022-11-04T17:47:36.469Z,8.89
2022-11-04T17:52:40.054Z,8.84
2022-11-04T17:57:40.931Z,8.92
2022-11-04T18:02:42.984Z,8.78
2022-11-04T18:07:48.227Z,8.73
2022-11-04T18:12:49.463Z,8.70
2022-11-04T18:17:52.626Z,8.63
2022-11-04T18:22:54.837Z,8.62
2022-11-04T18:27:55.636Z,8.63
2022-11-04T18:32:58.553Z,8.58
2022-11-04T18:38:00.734Z,8.66
2022-11-04T18:43:08.500Z,8.64
2022-11-04T18:48:10.169Z,8.66
2022-11-04T18:53:13.065Z,8.61
2022-11-04T18:58:13.909Z,8.66
2022-11-04T19:03:14.685Z,8.67
2022-11-04T19:08:16.890Z,8.64
2022-11-04T19:13:20.606Z,8.64
2022-11-04T19:18:21.507Z,8.62
2022-11-04T19:23:23.766Z,8.61
2022-11-04T19:28:40.387Z,8.68
2022-11-04T19:33:45.589Z,8.65
2022-11-04T19:38:48.319Z,8.62
2022-11-04T19:43:49.241Z,8.60
2022-11-04T19:48:50.035Z,8.64
2022-11-04T19:53:52.256Z,8.66
2022-11-04T19:58:53.179Z,8.65
2022-11-04T20:03:54.157Z,8.70
2022-11-04T20:08:56.312Z,8.73
2022-11-04T20:13:57.297Z,8.68
2022-11-04T20:19:01.416Z,8.72
2022-11-04T20:24:06.512Z,8.73
2022-11-04T20:29:08.177Z,8.76
2022-11-04T20:34:12.266Z,8.78
2022-11-04T20:39:17.122Z,8.69
2022-11-04T20:44:18.053Z,8.71
2022-11-04T20:49:18.859Z,8.77
2022-11-04T20:54:21.631Z,8.78
2022-11-04T20:59:22.496Z,8.74
2022-11-04T21:04:23.401Z,8.70
2022-11-04T21:09:25.671Z,8.71
2022-11-04T21:14:26.495Z,8.70
2022-11-04T21:19:27.286Z,8.71
2022-11-04T21:24:29.489Z,8.67
2022-11-04T21:29:30.315Z,8.63
2022-11-04T21:34:31.094Z,8.58
2022-11-04T21:39:33.219Z,8.63
2022-11-04T21:44:34.048Z,8.61
2022-11-04T21:49:34.964Z,8.58
2022-11-04T21:54:37.456Z,8.62
2022-11-04T21:59:38.262Z,8.57
2022-11-04T22:04:39.061Z,8.59
2022-11-04T22:09:41.232Z,8.57
2022-11-04T22:14:42.117Z,8.60
2022-11-04T22:19:42.909Z,8.58
2022-11-04T22:25:03.023Z,8.64
2022-11-04T22:30:03.976Z,8.59
2022-11-04T22:35:05.255Z,8.57
2022-11-04T22:40:09.191Z,8.53
2022-11-04T22:45:16.347Z,8.48
2022-11-04T22:50:17.892Z,8.47
2022-11-04T22:55:20.012Z,8.47
2022-11-04T23:00:22.484Z,8.43
2022-11-04T23:05:23.266Z,8.46
2022-11-04T23:10:42.776Z,8.46
2022-11-04T23:16:00.920Z,8.45
2022-11-04T23:21:19.520Z,8.45
2022-11-04T23:26:26.561Z,8.45
2022-11-04T23:31:28.573Z,8.45
2022-11-04T23:36:47.011Z,8.42
2022-11-04T23:42:06.488Z,8.44
2022-11-04T23:47:24.999Z,8.43
2022-11-04T23:52:43.397Z,8.39
2022-11-04T23:58:03.181Z,8.38
